createdAt,value
2017-02-02T00:00:07.914Z,0
2017-02-02T00:01:08.284Z,0
2017-02-02T00:02:08.265Z,0
2017-02-02T00:03:08.245Z,0
2017-02-02T00:04:07.848Z,0
2017-02-02T00:05:08.218Z,0
2017-02-02T00:06:07.809Z,0
2017-02-02T00:07:08.182Z,0
2017-02-02T00:08:07.781Z,0
2017-02-02T00:09:08.142Z,0
2017-02-02T00:10:07.741Z,0
2017-02-02T00:11:08.104Z,0
2017-02-02T00:12:07.702Z,0
2017-02-02T00:13:08.068Z,0
2017-02-02T00:14:07.672Z,0
2017-02-02T00:15:08.037Z,0
2017-02-02T00:16:08.017Z,0
2017-02-02T00:17:07.998Z,0
2017-02-02T00:18:07.981Z,0
2017-02-02T00:19:07.970Z,0
2017-02-02T00:20:07.957Z,0
2017-02-02T00:21:07.930Z,0
2017-02-02T00:22:07.915Z,0
2017-02-02T00:23:07.895Z,0
2017-02-02T00:24:07.881Z,0
2017-02-02T00:25:07.860Z,0
2017-02-02T00:26:07.841Z,0
2017-02-02T00:27:07.828Z,0
2017-02-02T00:28:07.806Z,0
2017-02-02T00:29:07.787Z,0
2017-02-02T00:30:07.389Z,0
2017-02-02T00:31:07.755Z,0
2017-02-02T00:32:07.735Z,0
2017-02-02T00:33:07.716Z,0
2017-02-02T00:34:07.709Z,0
2017-02-02T00:35:07.687Z,0
2017-02-02T00:36:07.666Z,0
2017-02-02T00:37:07.649Z,0
2017-02-02T00:38:07.629Z,0
2017-02-02T00:39:07.615Z,0
2017-02-02T00:40:07.596Z,0
2017-02-02T00:41:07.573Z,0
2017-02-02T00:42:07.557Z,0
2017-02-02T00:43:07.541Z,0
2017-02-02T00:44:07.523Z,0
2017-02-02T00:45:07.502Z,0
2017-02-02T00:46:07.487Z,0
2017-02-02T00:47:07.472Z,0
2017-02-02T00:48:07.454Z,0
2017-02-02T00:49:07.438Z,0
2017-02-02T00:50:07.414Z,0
2017-02-02T00:51:07.397Z,0
2017-02-02T00:52:07.381Z,0
2017-02-02T00:53:07.364Z,0
2017-02-02T00:54:07.345Z,0
2017-02-02T00:55:07.327Z,0
2017-02-02T00:56:06.926Z,0
2017-02-02T00:57:07.297Z,0
2017-02-02T00:58:07.276Z,0
2017-02-02T00:59:07.258Z,0
2017-02-02T01:00:07.239Z,0
2017-02-02T01:01:07.219Z,0
2017-02-02T01:02:07.202Z,0
2017-02-02T01:03:07.186Z,0
2017-02-02T01:04:07.169Z,0
2017-02-02T01:05:07.159Z,0
2017-02-02T01:06:07.133Z,0
2017-02-02T01:07:07.121Z,0
2017-02-02T01:08:07.097Z,0
2017-02-02T01:09:06.736Z,0
2017-02-02T01:10:07.064Z,0
2017-02-02T01:11:06.667Z,0
2017-02-02T01:12:07.028Z,0
2017-02-02T01:13:07.008Z,0
2017-02-02T01:14:06.994Z,0
2017-02-02T01:15:06.983Z,0
2017-02-02T01:16:06.957Z,0
2017-02-02T01:17:06.553Z,0
2017-02-02T01:18:06.920Z,0
2017-02-02T01:19:06.910Z,0
2017-02-02T01:20:06.887Z,0
2017-02-02T01:21:06.863Z,0
2017-02-02T01:22:06.855Z,0
2017-02-02T01:23:06.447Z,0
2017-02-02T01:24:06.817Z,0
2017-02-02T01:25:06.832Z,0
2017-02-02T01:26:06.773Z,0
2017-02-02T01:27:06.374Z,0
2017-02-02T01:28:06.750Z,0
2017-02-02T01:29:06.724Z,0
2017-02-02T01:30:06.712Z,0
2017-02-02T01:31:06.694Z,0
2017-02-02T01:32:06.669Z,0
2017-02-02T01:33:06.654Z,0
2017-02-02T01:34:06.631Z,0
2017-02-02T01:35:06.629Z,0
2017-02-02T01:36:06.598Z,0
2017-02-02T01:37:06.581Z,0
2017-02-02T01:38:06.568Z,0
2017-02-02T01:39:06.544Z,0
2017-02-02T01:40:06.530Z,0
2017-02-02T01:41:06.514Z,0
2017-02-02T01:42:06.105Z,0
2017-02-02T01:43:06.479Z,0
2017-02-02T01:44:06.456Z,0
2017-02-02T01:45:06.436Z,0
2017-02-02T01:46:06.420Z,0
2017-02-02T01:47:06.402Z,0
2017-02-02T01:48:05.999Z,0
2017-02-02T01:49:06.368Z,0
2017-02-02T01:50:06.350Z,0
2017-02-02T01:51:06.336Z,0
2017-02-02T01:52:06.318Z,0
2017-02-02T01:53:06.299Z,0
2017-02-02T01:54:06.282Z,0
2017-02-02T01:55:06.265Z,0
2017-02-02T01:56:05.887Z,0
2017-02-02T01:57:05.845Z,0
2017-02-02T01:58:06.215Z,0
2017-02-02T01:59:06.191Z,0
2017-02-02T02:00:06.167Z,0
2017-02-02T02:01:06.150Z,0
2017-02-02T02:02:06.162Z,0
2017-02-02T02:03:06.117Z,0
2017-02-02T02:04:06.100Z,0
2017-02-02T02:05:06.084Z,0
2017-02-02T02:06:06.068Z,0
2017-02-02T02:07:05.660Z,0
2017-02-02T02:08:06.026Z,0
2017-02-02T02:09:06.009Z,0
2017-02-02T02:10:05.992Z,0
2017-02-02T02:11:05.974Z,0
2017-02-02T02:12:05.954Z,0
2017-02-02T02:13:05.939Z,0
2017-02-02T02:14:05.917Z,0
2017-02-02T02:15:05.520Z,0
2017-02-02T02:16:05.883Z,0
2017-02-02T02:17:05.479Z,0
2017-02-02T02:18:05.842Z,0
2017-02-02T02:19:05.826Z,0
2017-02-02T02:20:05.809Z,0
2017-02-02T02:21:05.018Z,0
2017-02-02T02:22:05.771Z,0
2017-02-02T02:23:05.756Z,0
2017-02-02T02:24:05.361Z,0
2017-02-02T02:25:05.725Z,0
2017-02-02T02:26:05.700Z,0
2017-02-02T02:27:05.681Z,0
2017-02-02T02:28:05.662Z,0
2017-02-02T02:29:05.649Z,0
2017-02-02T02:30:05.638Z,0
2017-02-02T02:31:05.645Z,0
2017-02-02T02:32:05.595Z,0
2017-02-02T02:33:05.576Z,0
2017-02-02T02:34:05.558Z,0
2017-02-02T02:35:05.158Z,0
2017-02-02T02:36:05.521Z,0
2017-02-02T02:37:05.503Z,0
2017-02-02T02:38:05.488Z,0
2017-02-02T02:39:05.470Z,0
2017-02-02T02:40:05.061Z,0
2017-02-02T02:41:05.430Z,0
2017-02-02T02:42:05.415Z,0
2017-02-02T02:43:05.403Z,0
2017-02-02T02:44:05.378Z,0
2017-02-02T02:45:05.358Z,0
2017-02-02T02:46:05.341Z,0
2017-02-02T02:47:04.935Z,0
2017-02-02T02:48:05.303Z,0
2017-02-02T02:49:05.287Z,0
2017-02-02T02:50:05.269Z,0
2017-02-02T02:51:05.247Z,0
2017-02-02T02:52:05.228Z,0
2017-02-02T02:53:05.212Z,0
2017-02-02T02:54:05.196Z,0
2017-02-02T02:55:05.176Z,0
2017-02-02T02:56:05.159Z,0
2017-02-02T02:57:05.140Z,0
2017-02-02T02:58:05.124Z,0
2017-02-02T02:59:04.719Z,0
2017-02-02T03:00:05.088Z,0
2017-02-02T03:01:05.071Z,0
2017-02-02T03:02:05.047Z,0
2017-02-02T03:03:05.034Z,0
2017-02-02T03:04:05.013Z,0
2017-02-02T03:05:04.616Z,0
2017-02-02T03:06:04.982Z,0
2017-02-02T03:07:04.954Z,0
2017-02-02T03:08:04.938Z,0
2017-02-02T03:09:04.924Z,0
2017-02-02T03:10:04.902Z,0
2017-02-02T03:11:05.134Z,0
2017-02-02T03:12:04.868Z,0
2017-02-02T03:13:04.849Z,0
2017-02-02T03:14:04.826Z,0
2017-02-02T03:15:04.811Z,0
2017-02-02T03:16:04.801Z,0
2017-02-02T03:17:04.776Z,0
2017-02-02T03:18:04.756Z,0
2017-02-02T03:19:04.739Z,0
2017-02-02T03:20:04.721Z,0
2017-02-02T03:21:04.702Z,0
2017-02-02T03:22:04.687Z,0
2017-02-02T03:23:04.663Z,0
2017-02-02T03:24:04.645Z,0
2017-02-02T03:25:04.637Z,0
2017-02-02T03:26:04.610Z,0
2017-02-02T03:27:04.204Z,0
2017-02-02T03:28:04.571Z,0
2017-02-02T03:29:04.550Z,0
2017-02-02T03:30:04.533Z,0
2017-02-02T03:31:04.514Z,0
2017-02-02T03:32:04.499Z,0
2017-02-02T03:33:04.479Z,0
2017-02-02T03:34:04.464Z,0
2017-02-02T03:35:04.443Z,0
2017-02-02T03:36:04.038Z,0
2017-02-02T03:37:04.412Z,0
2017-02-02T03:38:04.430Z,0
2017-02-02T03:39:04.374Z,0
2017-02-02T03:40:04.352Z,0
2017-02-02T03:41:04.333Z,0
2017-02-02T03:42:04.311Z,0
2017-02-02T03:43:04.297Z,0
2017-02-02T03:44:04.273Z,0
2017-02-02T03:45:04.259Z,0
2017-02-02T03:46:04.240Z,0
2017-02-02T03:47:04.223Z,0
2017-02-02T03:48:04.205Z,0
2017-02-02T03:49:04.185Z,0
2017-02-02T03:50:04.166Z,0
2017-02-02T03:51:04.147Z,0
2017-02-02T03:52:04.128Z,0
2017-02-02T03:53:04.143Z,0
2017-02-02T03:54:04.091Z,0
2017-02-02T03:55:04.076Z,0
2017-02-02T03:56:04.053Z,0
2017-02-02T03:57:04.036Z,0
2017-02-02T03:58:04.023Z,0
2017-02-02T03:59:04.002Z,0
2017-02-02T04:00:03.981Z,0
2017-02-02T04:01:03.965Z,0
2017-02-02T04:02:03.944Z,0
2017-02-02T04:03:03.926Z,0
2017-02-02T04:04:03.909Z,0
2017-02-02T04:05:03.892Z,0
2017-02-02T04:06:03.873Z,0
2017-02-02T04:07:03.851Z,0
2017-02-02T04:08:03.835Z,0
2017-02-02T04:09:03.816Z,0
2017-02-02T04:10:03.801Z,0
2017-02-02T04:11:03.777Z,0
2017-02-02T04:12:03.758Z,0
2017-02-02T04:13:03.357Z,0
2017-02-02T04:14:03.337Z,0
2017-02-02T04:15:03.705Z,0
2017-02-02T04:16:03.683Z,0
2017-02-02T04:17:03.667Z,0
2017-02-02T04:18:03.649Z,0
2017-02-02T04:19:03.661Z,0
2017-02-02T04:20:03.611Z,0
2017-02-02T04:21:03.207Z,0
2017-02-02T04:22:03.573Z,0
2017-02-02T04:23:03.557Z,0
2017-02-02T04:24:03.572Z,0
2017-02-02T04:25:03.522Z,0
2017-02-02T04:26:03.498Z,0
2017-02-02T04:27:03.479Z,0
2017-02-02T04:28:03.467Z,0
2017-02-02T04:29:03.474Z,0
2017-02-02T04:30:03.429Z,0
2017-02-02T04:31:03.413Z,0
2017-02-02T04:32:03.390Z,0
2017-02-02T04:33:03.369Z,0
2017-02-02T04:34:03.355Z,0
2017-02-02T04:35:03.334Z,0
2017-02-02T04:36:03.318Z,0
2017-02-02T04:37:03.296Z,0
2017-02-02T04:38:03.276Z,0
2017-02-02T04:39:03.261Z,0
2017-02-02T04:40:03.239Z,0
2017-02-02T04:41:03.222Z,0
2017-02-02T04:42:03.206Z,0
2017-02-02T04:43:03.188Z,0
2017-02-02T04:44:03.166Z,0
2017-02-02T04:45:03.147Z,0
2017-02-02T04:46:03.128Z,0
2017-02-02T04:47:03.113Z,0
2017-02-02T04:48:03.095Z,0
2017-02-02T04:49:03.075Z,0
2017-02-02T04:50:03.057Z,0
2017-02-02T04:51:03.036Z,0
2017-02-02T04:52:03.023Z,0
2017-02-02T04:53:03.000Z,0
2017-02-02T04:54:02.981Z,0
2017-02-02T04:55:02.967Z,0
2017-02-02T04:56:02.942Z,0
2017-02-02T04:57:02.923Z,0
2017-02-02T04:58:02.907Z,0
2017-02-02T04:59:02.888Z,0
2017-02-02T05:00:02.874Z,0
2017-02-02T05:01:02.857Z,0
2017-02-02T05:02:02.832Z,0
2017-02-02T05:03:02.815Z,0
2017-02-02T05:04:02.796Z,0
2017-02-02T05:05:02.779Z,0
2017-02-02T05:06:02.760Z,0
2017-02-02T05:07:02.741Z,0
2017-02-02T05:08:02.724Z,0
2017-02-02T05:09:02.704Z,0
2017-02-02T05:10:02.692Z,0
2017-02-02T05:11:02.282Z,0
2017-02-02T05:12:02.646Z,0
2017-02-02T05:13:02.630Z,0
2017-02-02T05:14:02.618Z,0
2017-02-02T05:15:02.593Z,0
2017-02-02T05:16:02.574Z,0
2017-02-02T05:17:02.555Z,0
2017-02-02T05:18:02.535Z,0
2017-02-02T05:19:02.522Z,0
2017-02-02T05:20:02.116Z,0
2017-02-02T05:21:02.479Z,0
2017-02-02T05:22:02.464Z,0
2017-02-02T05:23:02.447Z,0
2017-02-02T05:24:02.428Z,0
2017-02-02T05:25:02.410Z,0
2017-02-02T05:26:02.394Z,0
2017-02-02T05:27:02.374Z,0
2017-02-02T05:28:02.356Z,0
2017-02-02T05:29:02.336Z,0
2017-02-02T05:30:02.315Z,0
2017-02-02T05:31:02.296Z,0
2017-02-02T05:32:02.281Z,0
2017-02-02T05:33:02.261Z,0
2017-02-02T05:34:02.242Z,0
2017-02-02T05:35:02.226Z,0
2017-02-02T05:36:02.207Z,0
2017-02-02T05:37:02.190Z,0
2017-02-02T05:38:02.172Z,0
2017-02-02T05:39:02.151Z,0
2017-02-02T05:40:02.132Z,0
2017-02-02T05:41:02.114Z,0
2017-02-02T05:42:02.135Z,0
2017-02-02T05:43:02.080Z,0
2017-02-02T05:44:02.060Z,0
2017-02-02T05:45:02.038Z,0
2017-02-02T05:46:02.031Z,0
2017-02-02T05:47:02.005Z,0
2017-02-02T05:48:01.984Z,0
2017-02-02T05:49:01.968Z,0
2017-02-02T05:50:01.958Z,0
2017-02-02T05:51:01.938Z,0
2017-02-02T05:52:01.913Z,0
2017-02-02T05:53:01.508Z,0
2017-02-02T05:54:01.878Z,0
2017-02-02T05:55:01.858Z,0
2017-02-02T05:56:01.842Z,0
2017-02-02T05:57:01.825Z,0
2017-02-02T05:58:01.805Z,0
2017-02-02T05:59:01.792Z,0
2017-02-02T06:00:01.779Z,0
2017-02-02T06:01:01.747Z,0
2017-02-02T06:02:01.735Z,0
2017-02-02T06:03:01.324Z,0
2017-02-02T06:04:01.305Z,0
2017-02-02T06:05:01.672Z,0
2017-02-02T06:06:01.656Z,0
2017-02-02T06:07:01.635Z,0
2017-02-02T06:08:01.620Z,0
2017-02-02T06:09:01.599Z,0
2017-02-02T06:10:01.581Z,0
2017-02-02T06:11:01.564Z,0
2017-02-02T06:12:01.543Z,0
2017-02-02T06:13:01.532Z,0
2017-02-02T06:14:01.509Z,0
2017-02-02T06:15:01.488Z,0
2017-02-02T06:16:01.475Z,0
2017-02-02T06:17:01.066Z,0
2017-02-02T06:18:01.437Z,0
2017-02-02T06:19:01.417Z,0
2017-02-02T06:20:01.397Z,0
2017-02-02T06:21:01.381Z,0
2017-02-02T06:22:01.359Z,0
2017-02-02T06:23:01.345Z,0
2017-02-02T06:24:01.325Z,0
2017-02-02T06:25:01.305Z,0
2017-02-02T06:26:01.290Z,0
2017-02-02T06:27:01.270Z,0
2017-02-02T06:28:01.247Z,0
2017-02-02T06:29:01.231Z,0
2017-02-02T06:30:01.213Z,0
2017-02-02T06:31:00.809Z,0
2017-02-02T06:32:01.176Z,0
2017-02-02T06:33:01.156Z,0
2017-02-02T06:34:01.140Z,5
2017-02-02T06:35:01.125Z,5
2017-02-02T06:36:01.102Z,5
2017-02-02T06:37:01.084Z,5
2017-02-02T06:38:01.066Z,5
2017-02-02T06:39:01.047Z,5
2017-02-02T06:40:01.028Z,10
2017-02-02T06:41:01.009Z,10
2017-02-02T06:42:01.028Z,10
2017-02-02T06:43:00.972Z,10
2017-02-02T06:44:00.960Z,10
2017-02-02T06:45:00.937Z,15
2017-02-02T06:46:00.925Z,15
2017-02-02T06:47:00.910Z,15
2017-02-02T06:48:00.879Z,15
2017-02-02T06:49:00.473Z,20
2017-02-02T06:50:00.845Z,20
2017-02-02T06:51:00.828Z,20
2017-02-02T06:52:00.811Z,20
2017-02-02T06:53:00.800Z,25
2017-02-02T06:54:00.774Z,25
2017-02-02T06:55:00.367Z,25
2017-02-02T06:56:00.732Z,30
2017-02-02T06:57:00.722Z,30
2017-02-02T06:58:00.699Z,35
2017-02-02T06:59:00.679Z,35
2017-02-02T07:00:00.661Z,35
2017-02-02T07:01:00.646Z,40
2017-02-02T07:02:00.623Z,40
2017-02-02T07:03:00.605Z,45
2017-02-02T07:04:00.587Z,45
2017-02-02T07:05:00.569Z,45
2017-02-02T07:06:00.548Z,50
2017-02-02T07:07:00.529Z,50
2017-02-02T07:08:00.516Z,55
2017-02-02T07:09:00.494Z,55
2017-02-02T07:10:00.478Z,60
2017-02-02T07:11:00.457Z,60
2017-02-02T07:12:00.441Z,60
2017-02-02T07:13:00.424Z,60
2017-02-02T07:14:00.404Z,60
2017-02-02T07:15:00.387Z,65
2017-02-02T07:16:00.370Z,65
2017-02-02T07:17:00.357Z,70
2017-02-02T07:18:00.334Z,75
2017-02-02T07:19:00.316Z,75
2017-02-02T07:20:00.296Z,80
2017-02-02T07:21:00.275Z,80
2017-02-02T07:22:00.259Z,85
2017-02-02T07:23:00.243Z,85
2017-02-02T07:23:59.837Z,90
2017-02-02T07:25:00.211Z,90
2017-02-02T07:26:00.186Z,90
2017-02-02T07:27:00.170Z,90
2017-02-02T07:28:00.155Z,105
2017-02-02T07:29:00.175Z,105
2017-02-02T07:30:00.121Z,105
2017-02-02T07:31:00.119Z,105
2017-02-02T07:32:00.083Z,110
2017-02-02T07:33:00.061Z,110
2017-02-02T07:34:00.050Z,115
2017-02-02T07:34:59.650Z,120
2017-02-02T07:36:00.012Z,125
2017-02-02T07:37:00.001Z,125
2017-02-02T07:37:59.980Z,130
2017-02-02T07:38:59.977Z,115
2017-02-02T07:39:59.553Z,125
2017-02-02T07:40:59.923Z,120
2017-02-02T07:41:59.908Z,125
2017-02-02T07:42:59.889Z,125
2017-02-02T07:43:59.871Z,125
2017-02-02T07:44:59.857Z,130
2017-02-02T07:45:59.452Z,135
2017-02-02T07:46:59.823Z,135
2017-02-02T07:47:59.807Z,135
2017-02-02T07:48:59.791Z,135
2017-02-02T07:49:59.387Z,140
2017-02-02T07:50:59.756Z,145
2017-02-02T07:51:59.741Z,145
2017-02-02T07:52:59.719Z,145
2017-02-02T07:53:59.701Z,150
2017-02-02T07:54:59.682Z,145
2017-02-02T07:55:59.667Z,155
2017-02-02T07:56:59.655Z,155
2017-02-02T07:57:59.633Z,155
2017-02-02T07:58:59.617Z,155
2017-02-02T07:59:59.599Z,160
2017-02-02T08:00:59.579Z,160
2017-02-02T08:01:59.562Z,165
2017-02-02T08:02:59.162Z,165
2017-02-02T08:03:59.529Z,170
2017-02-02T08:04:59.130Z,170
2017-02-02T08:05:59.497Z,165
2017-02-02T08:06:59.475Z,170
2017-02-02T08:07:59.464Z,175
2017-02-02T08:08:59.062Z,175
2017-02-02T08:09:59.429Z,175
2017-02-02T08:10:59.420Z,180
2017-02-02T08:11:59.012Z,175
2017-02-02T08:12:58.992Z,175
2017-02-02T08:13:59.359Z,180
2017-02-02T08:14:58.958Z,180
2017-02-02T08:15:58.939Z,180
2017-02-02T08:16:59.319Z,180
2017-02-02T08:17:58.908Z,180
2017-02-02T08:18:58.507Z,185
2017-02-02T08:19:58.873Z,185
2017-02-02T08:20:58.857Z,185
2017-02-02T08:21:59.229Z,185
2017-02-02T08:22:59.210Z,185
2017-02-02T08:23:59.196Z,190
2017-02-02T08:24:59.176Z,195
2017-02-02T08:25:59.161Z,195
2017-02-02T08:26:59.150Z,195
2017-02-02T08:27:59.128Z,195
2017-02-02T08:28:59.111Z,195
2017-02-02T08:29:59.094Z,195
2017-02-02T08:30:59.075Z,200
2017-02-02T08:31:58.684Z,195
2017-02-02T08:32:59.061Z,195
2017-02-02T08:33:59.030Z,195
2017-02-02T08:34:59.012Z,205
2017-02-02T08:35:58.999Z,200
2017-02-02T08:36:58.978Z,200
2017-02-02T08:37:58.989Z,205
2017-02-02T08:38:58.945Z,205
2017-02-02T08:39:58.543Z,205
2017-02-02T08:40:58.917Z,215
2017-02-02T08:41:58.897Z,205
2017-02-02T08:42:58.879Z,205
2017-02-02T08:43:58.871Z,205
2017-02-02T08:44:58.844Z,210
2017-02-02T08:45:58.830Z,210
2017-02-02T08:46:58.815Z,210
2017-02-02T08:47:58.797Z,215
2017-02-02T08:48:58.778Z,210
2017-02-02T08:49:58.772Z,210
2017-02-02T08:50:58.746Z,210
2017-02-02T08:51:58.765Z,210
2017-02-02T08:52:58.715Z,210
2017-02-02T08:53:58.699Z,210
2017-02-02T08:54:58.686Z,220
2017-02-02T08:55:58.673Z,210
2017-02-02T08:56:58.652Z,215
2017-02-02T08:57:58.637Z,215
2017-02-02T08:58:58.621Z,215
2017-02-02T08:59:58.605Z,215
2017-02-02T09:00:58.591Z,215
2017-02-02T09:01:58.573Z,210
2017-02-02T09:02:58.557Z,210
2017-02-02T09:03:58.542Z,210
2017-02-02T09:04:58.524Z,215
2017-02-02T09:05:58.508Z,215
2017-02-02T09:06:58.493Z,215
2017-02-02T09:07:58.480Z,215
2017-02-02T09:08:57.695Z,215
2017-02-02T09:09:58.445Z,215
2017-02-02T09:10:58.435Z,215
2017-02-02T09:11:58.413Z,220
2017-02-02T09:12:58.682Z,220
2017-02-02T09:13:58.639Z,220
2017-02-02T09:14:58.365Z,220
2017-02-02T09:15:58.353Z,220
2017-02-02T09:16:58.343Z,220
2017-02-02T09:17:58.321Z,220
2017-02-02T09:18:58.306Z,220
2017-02-02T09:19:58.289Z,220
2017-02-02T09:20:57.890Z,220
2017-02-02T09:21:58.267Z,220
2017-02-02T09:22:58.244Z,225
2017-02-02T09:23:57.843Z,220
2017-02-02T09:24:58.211Z,220
2017-02-02T09:25:58.196Z,220
2017-02-02T09:26:58.181Z,220
2017-02-02T09:27:58.168Z,220
2017-02-02T09:28:58.152Z,220
2017-02-02T09:29:58.136Z,220
2017-02-02T09:30:58.131Z,220
2017-02-02T09:31:58.105Z,220
2017-02-02T09:32:58.095Z,220
2017-02-02T09:33:57.689Z,220
2017-02-02T09:34:58.062Z,220
2017-02-02T09:35:58.042Z,220
2017-02-02T09:36:58.033Z,220
2017-02-02T09:37:57.630Z,220
2017-02-02T09:38:57.613Z,220
2017-02-02T09:39:57.983Z,220
2017-02-02T09:40:57.973Z,225
2017-02-02T09:41:57.957Z,225
2017-02-02T09:42:57.943Z,220
2017-02-02T09:43:57.923Z,225
2017-02-02T09:44:57.523Z,220
2017-02-02T09:45:57.898Z,225
2017-02-02T09:46:57.880Z,225
2017-02-02T09:47:57.485Z,225
2017-02-02T09:48:57.850Z,225
2017-02-02T09:49:57.449Z,225
2017-02-02T09:50:57.819Z,230
2017-02-02T09:51:57.805Z,230
2017-02-02T09:52:57.800Z,230
2017-02-02T09:53:57.385Z,230
2017-02-02T09:54:57.760Z,225
2017-02-02T09:55:57.744Z,225
2017-02-02T09:56:57.731Z,225
2017-02-02T09:57:57.716Z,225
2017-02-02T09:58:57.721Z,225
2017-02-02T09:59:57.686Z,225
2017-02-02T10:00:57.672Z,225
2017-02-02T10:01:57.681Z,225
2017-02-02T10:02:57.639Z,225
2017-02-02T10:03:57.623Z,225
2017-02-02T10:04:57.609Z,225
2017-02-02T10:05:57.618Z,225
2017-02-02T10:06:57.194Z,225
2017-02-02T10:07:57.181Z,225
2017-02-02T10:08:57.548Z,230
2017-02-02T10:09:57.535Z,230
2017-02-02T10:10:57.522Z,220
2017-02-02T10:11:57.511Z,225
2017-02-02T10:12:57.487Z,225
2017-02-02T10:13:57.474Z,220
2017-02-02T10:14:57.467Z,220
2017-02-02T10:15:57.469Z,230
2017-02-02T10:16:57.428Z,230
2017-02-02T10:17:57.412Z,225
2017-02-02T10:18:57.398Z,225
2017-02-02T10:19:57.387Z,225
2017-02-02T10:20:57.369Z,225
2017-02-02T10:21:57.001Z,225
2017-02-02T10:22:57.344Z,225
2017-02-02T10:23:57.328Z,225
2017-02-02T10:24:57.311Z,225
2017-02-02T10:25:57.299Z,225
2017-02-02T10:26:57.276Z,225
2017-02-02T10:27:56.497Z,230
2017-02-02T10:28:57.255Z,230
2017-02-02T10:29:57.260Z,230
2017-02-02T10:30:57.221Z,230
2017-02-02T10:31:57.202Z,225
2017-02-02T10:32:57.187Z,230
2017-02-02T10:33:57.177Z,230
2017-02-02T10:34:57.161Z,235
2017-02-02T10:35:57.150Z,230
2017-02-02T10:36:57.155Z,230
2017-02-02T10:37:57.115Z,230
2017-02-02T10:38:56.725Z,225
2017-02-02T10:39:57.085Z,225
2017-02-02T10:40:57.072Z,230
2017-02-02T10:41:57.064Z,230
2017-02-02T10:42:57.048Z,230
2017-02-02T10:43:56.641Z,230
2017-02-02T10:44:57.013Z,225
2017-02-02T10:45:57.003Z,225
2017-02-02T10:46:56.603Z,225
2017-02-02T10:47:56.973Z,225
2017-02-02T10:48:56.960Z,225
2017-02-02T10:49:56.940Z,225
2017-02-02T10:50:56.545Z,230
2017-02-02T10:51:56.913Z,225
2017-02-02T10:52:56.901Z,225
2017-02-02T10:53:56.885Z,220
2017-02-02T10:54:56.482Z,195
2017-02-02T10:55:56.470Z,180
2017-02-02T10:56:56.842Z,180
2017-02-02T10:57:56.472Z,190
2017-02-02T10:58:56.810Z,215
2017-02-02T10:59:56.796Z,255
2017-02-02T11:00:56.781Z,295
2017-02-02T11:01:56.805Z,325
2017-02-02T11:02:56.754Z,345
2017-02-02T11:03:56.742Z,355
2017-02-02T11:04:56.727Z,360
2017-02-02T11:05:56.715Z,360
2017-02-02T11:06:56.697Z,365
2017-02-02T11:07:56.686Z,360
2017-02-02T11:08:56.669Z,360
2017-02-02T11:09:56.656Z,360
2017-02-02T11:10:56.642Z,365
2017-02-02T11:11:56.626Z,370
2017-02-02T11:12:56.616Z,370
2017-02-02T11:13:56.602Z,365
2017-02-02T11:14:56.586Z,360
2017-02-02T11:15:56.576Z,355
2017-02-02T11:16:56.565Z,355
2017-02-02T11:17:56.580Z,350
2017-02-02T11:18:56.535Z,345
2017-02-02T11:19:56.523Z,340
2017-02-02T11:20:56.510Z,335
2017-02-02T11:21:56.499Z,330
2017-02-02T11:22:56.487Z,330
2017-02-02T11:23:56.484Z,330
2017-02-02T11:24:56.075Z,330
2017-02-02T11:25:56.449Z,330
2017-02-02T11:26:56.446Z,330
2017-02-02T11:27:56.424Z,325
2017-02-02T11:28:56.412Z,315
2017-02-02T11:29:56.421Z,310
2017-02-02T11:30:56.386Z,305
2017-02-02T11:31:55.991Z,305
2017-02-02T11:32:56.368Z,305
2017-02-02T11:33:56.351Z,305
2017-02-02T11:34:56.343Z,305
2017-02-02T11:35:56.326Z,300
2017-02-02T11:36:56.317Z,295
2017-02-02T11:37:56.303Z,285
2017-02-02T11:38:55.907Z,285
2017-02-02T11:39:56.283Z,280
2017-02-02T11:40:56.270Z,280
2017-02-02T11:41:56.257Z,280
2017-02-02T11:42:56.283Z,275
2017-02-02T11:43:56.235Z,270
2017-02-02T11:44:55.839Z,270
2017-02-02T11:45:55.826Z,270
2017-02-02T11:46:55.815Z,260
2017-02-02T11:47:56.185Z,250
2017-02-02T11:48:56.191Z,245
2017-02-02T11:49:56.163Z,235
2017-02-02T11:50:56.182Z,230
2017-02-02T11:51:56.142Z,225
2017-02-02T11:52:56.130Z,225
2017-02-02T11:53:55.736Z,225
2017-02-02T11:54:56.112Z,225
2017-02-02T11:55:56.099Z,225
2017-02-02T11:56:55.699Z,220
2017-02-02T11:57:56.071Z,220
2017-02-02T11:58:56.062Z,225
2017-02-02T11:59:54.891Z,230
2017-02-02T12:00:56.041Z,230
2017-02-02T12:01:56.024Z,225
2017-02-02T12:02:55.629Z,225
2017-02-02T12:03:56.002Z,220
2017-02-02T12:04:55.607Z,220
2017-02-02T12:05:55.593Z,215
2017-02-02T12:06:55.965Z,210
2017-02-02T12:07:55.999Z,200
2017-02-02T12:08:55.955Z,190
2017-02-02T12:09:55.545Z,190
2017-02-02T12:10:55.936Z,195
2017-02-02T12:11:55.911Z,195
2017-02-02T12:12:55.897Z,195
2017-02-02T12:13:55.889Z,195
2017-02-02T12:14:55.486Z,190
2017-02-02T12:15:55.475Z,185
2017-02-02T12:16:55.844Z,180
2017-02-02T12:17:55.835Z,170
2017-02-02T12:18:55.837Z,160
2017-02-02T12:19:55.821Z,155
2017-02-02T12:20:55.807Z,150
2017-02-02T12:21:55.795Z,150
2017-02-02T12:22:55.781Z,145
2017-02-02T12:23:55.763Z,145
2017-02-02T12:24:55.784Z,145
2017-02-02T12:25:55.354Z,145
2017-02-02T12:26:55.727Z,140
2017-02-02T12:27:55.327Z,135
2017-02-02T12:28:55.708Z,135
2017-02-02T12:29:55.693Z,130
2017-02-02T12:30:55.292Z,125
2017-02-02T12:31:55.666Z,120
2017-02-02T12:32:55.267Z,120
2017-02-02T12:33:55.668Z,120
2017-02-02T12:34:55.248Z,125
2017-02-02T12:35:55.622Z,130
2017-02-02T12:36:55.614Z,130
2017-02-02T12:37:55.211Z,140
2017-02-02T12:38:55.587Z,150
2017-02-02T12:39:55.568Z,160
2017-02-02T12:40:55.557Z,170
2017-02-02T12:41:55.158Z,185
2017-02-02T12:42:55.534Z,195
2017-02-02T12:43:55.520Z,210
2017-02-02T12:44:55.117Z,195
2017-02-02T12:45:55.520Z,175
2017-02-02T12:46:55.479Z,155
2017-02-02T12:47:55.467Z,145
2017-02-02T12:48:55.107Z,130
2017-02-02T12:49:55.443Z,120
2017-02-02T12:50:55.429Z,115
2017-02-02T12:51:55.030Z,110
2017-02-02T12:52:55.401Z,100
2017-02-02T12:53:54.999Z,95
2017-02-02T12:54:54.990Z,95
2017-02-02T12:55:54.977Z,90
2017-02-02T12:56:54.983Z,90
2017-02-02T12:57:55.341Z,85
2017-02-02T12:58:55.327Z,80
2017-02-02T12:59:55.314Z,75
2017-02-02T13:00:55.302Z,70
2017-02-02T13:01:55.296Z,70
2017-02-02T13:02:55.279Z,65
2017-02-02T13:03:55.295Z,65
2017-02-02T13:04:55.287Z,70
2017-02-02T13:05:54.852Z,70
2017-02-02T13:06:55.236Z,75
2017-02-02T13:07:55.214Z,75
2017-02-02T13:08:55.199Z,75
2017-02-02T13:09:54.802Z,70
2017-02-02T13:10:55.172Z,70
2017-02-02T13:11:55.164Z,75
2017-02-02T13:12:55.148Z,75
2017-02-02T13:13:55.137Z,75
2017-02-02T13:14:55.131Z,80
2017-02-02T13:15:55.111Z,80
2017-02-02T13:16:55.102Z,80
2017-02-02T13:17:54.698Z,80
2017-02-02T13:18:55.069Z,80
2017-02-02T13:19:55.063Z,80
2017-02-02T13:20:54.660Z,80
2017-02-02T13:21:55.034Z,75
2017-02-02T13:22:55.028Z,75
2017-02-02T13:23:55.014Z,75
2017-02-02T13:24:54.994Z,75
2017-02-02T13:25:54.983Z,75
2017-02-02T13:26:54.587Z,75
2017-02-02T13:27:54.572Z,70
2017-02-02T13:28:54.558Z,70
2017-02-02T13:29:54.933Z,70
2017-02-02T13:30:54.922Z,65
2017-02-02T13:31:54.905Z,60
2017-02-02T13:32:54.892Z,60
2017-02-02T13:33:54.881Z,60
2017-02-02T13:34:54.865Z,60
2017-02-02T13:35:54.854Z,60
2017-02-02T13:36:54.843Z,60
2017-02-02T13:37:54.830Z,60
2017-02-02T13:38:54.842Z,60
2017-02-02T13:39:54.804Z,60
2017-02-02T13:40:54.791Z,65
2017-02-02T13:41:54.778Z,65
2017-02-02T13:42:54.767Z,65
2017-02-02T13:43:54.753Z,65
2017-02-02T13:44:54.354Z,70
2017-02-02T13:45:54.726Z,70
2017-02-02T13:46:54.713Z,70
2017-02-02T13:47:54.700Z,75
2017-02-02T13:48:54.691Z,75
2017-02-02T13:49:54.674Z,80
2017-02-02T13:50:54.276Z,80
2017-02-02T13:51:54.649Z,75
2017-02-02T13:52:54.639Z,75
2017-02-02T13:53:54.239Z,75
2017-02-02T13:54:54.610Z,75
2017-02-02T13:55:54.593Z,75
2017-02-02T13:56:54.198Z,70
2017-02-02T13:57:54.574Z,70
2017-02-02T13:58:54.561Z,65
2017-02-02T13:59:54.541Z,65
2017-02-02T14:00:54.530Z,65
2017-02-02T14:01:54.519Z,60
2017-02-02T14:02:54.504Z,60
2017-02-02T14:03:54.106Z,55
2017-02-02T14:04:54.479Z,55
2017-02-02T14:05:54.741Z,55
2017-02-02T14:06:54.454Z,55
2017-02-02T14:07:54.054Z,50
2017-02-02T14:08:54.430Z,50
2017-02-02T14:09:54.415Z,50
2017-02-02T14:10:54.403Z,50
2017-02-02T14:11:54.391Z,50
2017-02-02T14:12:53.991Z,55
2017-02-02T14:13:54.360Z,55
2017-02-02T14:14:53.968Z,50
2017-02-02T14:15:54.339Z,50
2017-02-02T14:16:54.327Z,50
2017-02-02T14:17:53.931Z,45